Time;durP1;ratioP1;P1;durP2;ratioP2;P2;SDS_P1;SDS_P2;PMS_P1;PMS_P2;Temp;Humidity;BMP_temperature;BMP_pressure;BME280_temperature;BME280_humidity;BME280_pressure;Samples;Min_cycle;Max_cycle;Signal;HPM_P1;HPM_P2
2021/06/16 00:00:26;;;;;;;6.80;6.20;;;16.60;99.90;;;;;;4998687;28;20500;-44
2021/06/16 00:02:54;;;;;;;6.53;5.90;;;16.50;99.90;;;;;;4991149;28;20496;-45
2021/06/16 00:05:24;;;;;;;6.60;6.10;;;16.50;99.90;;;;;;4975868;28;20477;-50
2021/06/16 00:07:53;;;;;;;6.87;6.17;;;16.40;99.90;;;;;;4979363;28;20462;-44
2021/06/16 00:10:23;;;;;;;7.17;5.40;;;16.40;99.90;;;;;;4979681;28;20526;-47
2021/06/16 00:12:50;;;;;;;7.87;6.30;;;16.40;99.90;;;;;;4979143;28;20458;-48
2021/06/16 00:15:20;;;;;;;6.63;6.13;;;16.40;99.90;;;;;;4979587;28;20494;-51
2021/06/16 00:17:47;;;;;;;7.03;6.07;;;16.40;99.90;;;;;;4979468;28;20509;-51
2021/06/16 00:20:15;;;;;;;7.83;6.00;;;16.30;99.90;;;;;;4979485;28;20837;-49
2021/06/16 00:22:43;;;;;;;6.93;6.27;;;16.30;99.90;;;;;;4979121;28;20501;-55
2021/06/16 00:25:12;;;;;;;6.17;5.77;;;16.20;99.90;;;;;;4978967;28;20465;-54
2021/06/16 00:27:39;;;;;;;6.30;5.73;;;16.20;99.90;;;;;;4979194;28;20763;-54
2021/06/16 00:30:10;;;;;;;6.67;6.07;;;16.20;99.90;;;;;;4979293;28;20766;-50
2021/06/16 00:32:37;;;;;;;6.33;5.83;;;16.20;99.90;;;;;;4978994;28;20448;-47
2021/06/16 00:35:06;;;;;;;8.53;6.20;;;16.10;99.90;;;;;;4978819;28;20504;-44
2021/06/16 00:37:34;;;;;;;7.73;5.47;;;16.10;99.90;;;;;;4978706;28;20465;-52
2021/06/16 00:40:02;;;;;;;10.70;7.40;;;16.10;99.90;;;;;;4978969;28;20568;-44
2021/06/16 00:42:33;;;;;;;7.23;6.43;;;16.10;99.90;;;;;;4979150;28;20441;-46
2021/06/16 00:45:00;;;;;;;7.17;6.67;;;16.10;99.90;;;;;;4979496;28;20436;-45
2021/06/16 00:47:28;;;;;;;7.10;6.50;;;16.00;99.90;;;;;;4979377;28;20886;-45
2021/06/16 00:49:55;;;;;;;6.23;5.63;;;16.00;99.90;;;;;;4978825;28;20465;-49
2021/06/16 00:52:22;;;;;;;6.23;5.63;;;15.90;99.90;;;;;;4978938;28;20469;-46
2021/06/16 00:54:50;;;;;;;11.10;5.97;;;15.80;99.90;;;;;;4977880;28;20500;-48
2021/06/16 00:57:17;;;;;;;7.30;6.60;;;15.70;99.90;;;;;;4978770;28;20504;-46
2021/06/16 00:59:58;;;;;;;7.40;6.70;;;15.70;99.90;;;;;;4978482;28;20810;-47
2021/06/16 01:02:27;;;;;;;7.97;7.23;;;15.80;99.90;;;;;;4978777;28;20465;-44
2021/06/16 01:04:56;;;;;;;8.00;6.37;;;15.70;99.90;;;;;;4974992;28;20488;-48
2021/06/16 01:07:33;;;;;;;8.20;5.93;;;15.70;99.90;;;;;;4971914;28;20796;-45
2021/06/16 01:10:03;;;;;;;6.47;5.50;;;15.70;99.90;;;;;;4976857;28;20568;-48
2021/06/16 01:12:52;;;;;;;8.57;6.30;;;15.70;99.90;;;;;;4978185;28;20489;-51
2021/06/16 01:15:25;;;;;;;7.70;5.67;;;15.60;99.90;;;;;;4977454;28;20500;-46
2021/06/16 01:17:54;;;;;;;6.80;5.93;;;15.50;99.90;;;;;;4977879;28;20470;-48
2021/06/16 01:20:40;;;;;;;8.77;6.50;;;15.50;99.90;;;;;;4977692;28;20469;-48
2021/06/16 02:00:35;;;;;;;8.67;7.40;;;15.10;99.90;;;;;;905065;23;21991;-46
2021/06/16 02:39:05;;;;;;;7.07;6.37;;;14.80;99.90;;;;;;4995610;23;20481;-49
2021/06/16 02:41:34;;;;;;;8.03;5.77;;;14.80;99.90;;;;;;4999655;28;20469;-51
2021/06/16 02:44:01;;;;;;;7.27;6.60;;;14.80;99.90;;;;;;5000217;28;20833;-45
2021/06/16 02:46:31;;;;;;;6.53;6.03;;;14.80;99.90;;;;;;4983005;28;20456;-45
2021/06/16 02:49:01;;;;;;;7.87;6.20;;;14.80;99.90;;;;;;4999954;28;20795;-45
2021/06/16 02:51:29;;;;;;;6.63;6.03;;;14.80;99.90;;;;;;5000480;28;20447;-45
2021/06/16 02:53:56;;;;;;;7.77;6.30;;;14.80;99.90;;;;;;5000695;28;20476;-45
2021/06/16 02:56:26;;;;;;;7.87;5.97;;;14.80;99.90;;;;;;5000164;28;20488;-45
2021/06/16 02:58:55;;;;;;;7.17;6.47;;;14.80;99.90;;;;;;5000523;28;20465;-44
2021/06/16 03:01:23;;;;;;;6.90;5.87;;;14.80;99.90;;;;;;5000741;28;20465;-51
2021/06/16 03:03:52;;;;;;;6.27;5.70;;;14.70;99.90;;;;;;4992809;28;20892;-48
2021/06/16 03:06:22;;;;;;;7.53;6.80;;;14.70;99.90;;;;;;4999468;28;20457;-49
2021/06/16 03:08:51;;;;;;;8.50;6.07;;;14.70;99.90;;;;;;5000068;28;20472;-50
2021/06/16 03:11:18;;;;;;;7.00;5.80;;;14.70;99.90;;;;;;4999863;28;20465;-51
2021/06/16 03:13:48;;;;;;;7.37;6.67;;;14.70;99.90;;;;;;4999989;28;20431;-52
2021/06/16 03:16:16;;;;;;;7.60;6.90;;;14.80;99.90;;;;;;4999825;28;20460;-55
2021/06/16 03:18:45;;;;;;;7.10;6.00;;;14.70;99.90;;;;;;4998983;28;20882;-49
2021/06/16 03:21:13;;;;;;;5.23;4.83;;;14.70;99.90;;;;;;4999524;28;20464;-53
2021/06/16 03:23:41;;;;;;;6.77;6.20;;;14.70;99.90;;;;;;5000127;28;20882;-49
2021/06/16 03:26:10;;;;;;;7.23;5.57;;;14.70;99.90;;;;;;5000073;28;20465;-50
2021/06/16 03:28:37;;;;;;;7.30;6.57;;;14.70;99.90;;;;;;4999707;28;20465;-53
2021/06/16 03:31:06;;;;;;;6.77;6.07;;;14.70;99.90;;;;;;4999856;28;20444;-46
2021/06/16 03:33:34;;;;;;;10.20;7.10;;;14.60;99.90;;;;;;5000097;28;20900;-48
2021/06/16 03:36:02;;;;;;;8.90;6.60;;;14.70;99.90;;;;;;4999381;28;20516;-50
2021/06/16 03:38:32;;;;;;;7.07;6.40;;;14.70;99.90;;;;;;4998788;28;20491;-45
2021/06/16 03:41:01;;;;;;;7.93;7.23;;;14.70;99.90;;;;;;4999272;28;20899;-49
2021/06/16 03:43:28;;;;;;;8.00;7.30;;;14.70;99.90;;;;;;4999834;28;20475;-46
2021/06/16 03:45:57;;;;;;;7.17;6.57;;;14.70;99.90;;;;;;4999653;28;20442;-46
2021/06/16 03:48:28;;;;;;;8.43;7.53;;;14.70;99.90;;;;;;4999567;28;20469;-46
2021/06/16 03:50:56;;;;;;;7.30;6.60;;;14.70;99.90;;;;;;4999121;28;20824;-45
2021/06/16 03:53:24;;;;;;;7.63;6.87;;;14.70;99.90;;;;;;4999407;28;20472;-45
2021/06/16 03:55:52;;;;;;;7.57;6.87;;;14.70;99.90;;;;;;4999197;28;20519;-48
2021/06/16 03:58:20;;;;;;;9.40;6.77;;;14.70;99.90;;;;;;4999387;28;20468;-47
2021/06/16 04:00:48;;;;;;;8.23;7.17;;;14.70;99.90;;;;;;4999552;28;20464;-47
2021/06/16 04:03:16;;;;;;;8.27;6.83;;;14.70;99.90;;;;;;4991375;28;20476;-46
2021/06/16 04:05:44;;;;;;;7.67;6.97;;;14.70;99.90;;;;;;4994583;28;20479;-55
2021/06/16 04:08:12;;;;;;;7.77;7.17;;;14.80;99.90;;;;;;4998443;28;20465;-52
2021/06/16 04:10:43;;;;;;;7.70;6.73;;;14.80;99.90;;;;;;4998737;28;20468;-53
2021/06/16 04:13:10;;;;;;;7.67;6.87;;;14.90;99.90;;;;;;4998708;28;20457;-50
2021/06/16 04:15:37;;;;;;;8.97;7.37;;;14.90;99.90;;;;;;4999073;28;20793;-53
2021/06/16 04:18:05;;;;;;;13.70;7.00;;;15.00;99.90;;;;;;4998923;28;20469;-52
2021/06/16 04:20:36;;;;;;;7.43;6.80;;;15.00;99.90;;;;;;4998715;28;20890;-53
2021/06/16 04:23:05;;;;;;;7.20;6.57;;;15.10;99.90;;;;;;4998286;28;20469;-54
2021/06/16 04:25:35;;;;;;;9.13;7.20;;;15.10;99.90;;;;;;4999344;28;20452;-46
2021/06/16 04:28:02;;;;;;;7.50;6.80;;;15.00;99.90;;;;;;4998517;28;20463;-49
2021/06/16 04:30:31;;;;;;;7.87;6.83;;;15.10;99.90;;;;;;4998784;28;20440;-46
2021/06/16 04:32:58;;;;;;;8.03;7.43;;;15.20;99.90;;;;;;4998559;28;20472;-46
2021/06/16 04:35:25;;;;;;;7.60;7.00;;;15.20;99.90;;;;;;4998524;28;20591;-45
2021/06/16 04:37:52;;;;;;;8.47;7.60;;;15.30;99.90;;;;;;4996319;28;20854;-49
2021/06/16 04:40:22;;;;;;;8.30;7.50;;;15.40;99.90;;;;;;4996997;28;20897;-46
2021/06/16 04:42:49;;;;;;;7.90;7.20;;;15.40;99.90;;;;;;4992557;28;20473;-49
2021/06/16 04:45:17;;;;;;;7.53;6.83;;;15.50;99.90;;;;;;4996966;28;20496;-47
2021/06/16 04:47:44;;;;;;;8.30;7.63;;;15.60;99.90;;;;;;4996230;28;20451;-46
2021/06/16 04:50:14;;;;;;;8.23;7.50;;;15.60;99.90;;;;;;4996743;28;20460;-46
2021/06/16 04:52:42;;;;;;;8.53;7.73;;;15.70;99.90;;;;;;4997074;28;20527;-46
2021/06/16 04:55:11;;;;;;;8.67;7.77;;;15.80;99.90;;;;;;4997127;28;20811;-48
2021/06/16 04:57:40;;;;;;;8.80;8.00;;;15.80;99.90;;;;;;5000587;28;20469;-51
2021/06/16 05:00:09;;;;;;;9.57;8.50;;;16.00;99.90;;;;;;5000005;28;20444;-53
2021/06/16 05:02:37;;;;;;;9.73;8.80;;;16.00;99.90;;;;;;4994351;28;20476;-55
2021/06/16 05:05:11;;;;;;;8.97;8.07;;;16.10;99.90;;;;;;4990389;28;20477;-53
2021/06/16 05:07:39;;;;;;;10.87;7.87;;;16.20;99.90;;;;;;4996115;28;20483;-53
2021/06/16 05:10:07;;;;;;;8.40;7.60;;;16.20;99.90;;;;;;4997545;28;20464;-49
2021/06/16 05:12:34;;;;;;;8.63;7.93;;;16.30;99.90;;;;;;4997308;28;20501;-49
2021/06/16 05:15:03;;;;;;;9.70;7.90;;;16.50;99.90;;;;;;4996720;28;20473;-47
2021/06/16 05:17:30;;;;;;;11.50;9.60;;;16.70;99.90;;;;;;4998323;28;20790;-49
2021/06/16 05:20:00;;;;;;;10.67;8.40;;;16.80;99.90;;;;;;4996647;28;20470;-45
2021/06/16 05:22:28;;;;;;;11.73;8.60;;;17.10;99.90;;;;;;4997650;28;20920;-44
2021/06/16 05:24:56;;;;;;;9.80;8.50;;;17.30;99.90;;;;;;4996664;28;20907;-43
2021/06/16 05:27:23;;;;;;;11.97;9.50;;;17.50;99.90;;;;;;4998747;28;20913;-44
2021/06/16 06:07:39;;;;;;;12.63;7.80;;;21.30;99.90;;;;;;4999113;28;20603;-50
2021/06/16 06:10:11;;;;;;;12.27;9.23;;;21.50;99.90;;;;;;5001121;28;20903;-48
2021/06/16 06:52:55;;;;;;;13.93;8.63;;;23.80;99.60;;;;;;4978752;28;20474;-50
2021/06/16 06:55:22;;;;;;;8.80;7.93;;;24.30;98.40;;;;;;4981199;28;20468;-50
2021/06/16 06:57:49;;;;;;;8.97;7.47;;;24.60;96.40;;;;;;4980897;28;20440;-49
2021/06/16 07:00:17;;;;;;;9.03;8.10;;;24.90;95.10;;;;;;4980620;28;20469;-50
2021/06/16 07:02:46;;;;;;;9.70;7.80;;;25.00;91.90;;;;;;4974082;28;20487;-49
2021/06/16 07:05:20;;;;;;;10.97;8.00;;;25.30;92.20;;;;;;4955889;28;20538;-51
2021/06/16 07:07:49;;;;;;;9.30;7.30;;;25.50;91.20;;;;;;4961561;29;20477;-45
2021/06/16 07:10:22;;;;;;;10.23;7.63;;;25.40;85.00;;;;;;4960835;28;20462;-46
2021/06/16 07:12:49;;;;;;;8.80;7.90;;;25.70;89.30;;;;;;4961469;29;20840;-46
2021/06/16 07:15:16;;;;;;;7.37;6.77;;;25.90;87.70;;;;;;4961996;29;20462;-44
2021/06/16 07:17:44;;;;;;;8.60;7.83;;;25.60;84.70;;;;;;4961643;29;20471;-44
2021/06/16 07:20:13;;;;;;;7.30;6.60;;;25.50;86.60;;;;;;4960978;29;20470;-46
2021/06/16 08:03:43;;;;;;;7.20;6.67;;;28.60;61.30;;;;;;4990398;28;20531;-55
2021/06/16 08:06:11;;;;;;;7.83;7.23;;;28.60;66.30;;;;;;4997857;28;20463;-55
2021/06/16 08:08:38;;;;;;;8.40;7.47;;;28.60;62.10;;;;;;4999292;28;20495;-51
2021/06/16 08:11:08;;;;;;;9.27;7.40;;;28.20;65.00;;;;;;4998173;28;20472;-54
2021/06/16 08:13:36;;;;;;;10.10;6.50;;;28.80;64.70;;;;;;4998979;28;20465;-53
2021/06/16 08:16:03;;;;;;;7.30;6.60;;;29.60;65.90;;;;;;4998103;28;20507;-48
2021/06/16 08:18:32;;;;;;;7.87;7.17;;;29.30;63.30;;;;;;4998323;28;20788;-51
2021/06/16 08:21:01;;;;;;;8.17;7.50;;;29.70;62.90;;;;;;4999187;28;20519;-54
2021/06/16 08:23:28;;;;;;;7.20;6.60;;;29.50;64.90;;;;;;4998507;28;20780;-55
2021/06/16 08:25:56;;;;;;;8.87;7.97;;;29.80;60.80;;;;;;4998537;28;20913;-55
2021/06/16 08:28:26;;;;;;;8.43;7.73;;;30.40;62.90;;;;;;4998060;28;20479;-55
2021/06/16 08:30:53;;;;;;;7.70;6.90;;;30.40;62.50;;;;;;4998698;28;20890;-55
2021/06/16 08:33:20;;;;;;;8.20;7.50;;;30.00;58.80;;;;;;4998059;28;20491;-46
2021/06/16 08:35:47;;;;;;;7.27;6.57;;;30.20;62.20;;;;;;4993423;28;20948;-55
2021/06/16 08:38:15;;;;;;;7.53;6.83;;;30.50;59.10;;;;;;4997406;28;20786;-55
2021/06/16 08:40:43;;;;;;;8.77;8.10;;;30.80;61.00;;;;;;4997995;28;20504;-55
2021/06/16 08:43:10;;;;;;;9.47;7.17;;;31.00;59.50;;;;;;4998508;28;20886;-53
2021/06/16 08:45:39;;;;;;;9.40;7.20;;;31.20;58.40;;;;;;4997368;28;20469;-55
2021/06/16 08:48:08;;;;;;;8.77;7.87;;;31.50;57.40;;;;;;4998234;28;20473;-54
2021/06/16 08:50:35;;;;;;;9.47;7.60;;;31.50;55.30;;;;;;4997467;28;20447;-55
2021/06/16 08:53:06;;;;;;;7.50;6.80;;;31.70;55.40;;;;;;4997896;28;20500;-49
2021/06/16 08:55:35;;;;;;;7.47;6.70;;;32.00;55.30;;;;;;4997762;28;20477;-51
2021/06/16 08:58:02;;;;;;;7.27;6.50;;;32.10;55.30;;;;;;4997618;28;20471;-54
2021/06/16 09:00:29;;;;;;;10.93;7.10;;;32.10;54.80;;;;;;4996348;28;20464;-49
2021/06/16 09:02:59;;;;;;;11.57;7.07;;;31.70;55.60;;;;;;4993522;28;20515;-55
2021/06/16 09:05:37;;;;;;;8.40;7.20;;;31.80;54.70;;;;;;4992538;28;20476;-50
2021/06/16 09:08:18;;;;;;;8.23;7.53;;;31.90;55.20;;;;;;4997932;28;20523;-54
2021/06/16 09:10:48;;;;;;;8.30;7.60;;;32.30;55.00;;;;;;4997912;28;20487;-48
2021/06/16 09:13:27;;;;;;;11.60;7.70;;;32.10;53.60;;;;;;4997499;28;20467;-49
2021/06/16 09:15:55;;;;;;;9.20;8.40;;;32.60;54.10;;;;;;4991470;28;20475;-56
2021/06/16 09:18:22;;;;;;;8.87;8.17;;;32.60;52.30;;;;;;4997875;28;20465;-55
2021/06/16 09:20:50;;;;;;;9.80;9.00;;;32.60;51.90;;;;;;4996292;28;20468;-51
2021/06/16 09:23:25;;;;;;;7.87;7.23;;;32.60;53.20;;;;;;4997232;28;20465;-56
2021/06/16 09:26:10;;;;;;;7.33;6.73;;;32.80;51.70;;;;;;4996873;28;20487;-54
2021/06/16 09:28:39;;;;;;;7.97;7.10;;;32.80;51.20;;;;;;4997988;28;20760;-52
2021/06/16 09:31:07;;;;;;;8.93;8.13;;;32.60;51.60;;;;;;4994214;28;20451;-54
2021/06/16 09:33:35;;;;;;;9.17;7.93;;;32.70;51.60;;;;;;4996644;28;20468;-56
2021/06/16 09:36:09;;;;;;;9.33;8.40;;;32.60;51.10;;;;;;4997513;28;20472;-54
2021/06/16 09:38:36;;;;;;;9.30;8.40;;;32.90;52.40;;;;;;4994118;28;20474;-53
2021/06/16 09:41:05;;;;;;;8.40;7.80;;;32.90;53.30;;;;;;4997431;28;20475;-54
2021/06/16 09:43:33;;;;;;;9.03;8.20;;;33.20;53.20;;;;;;4996615;28;20471;-55
2021/06/16 09:46:02;;;;;;;9.20;8.50;;;33.50;49.80;;;;;;4998001;28;20474;-56
2021/06/16 09:48:32;;;;;;;9.70;7.43;;;33.60;50.00;;;;;;4985237;28;20889;-54
2021/06/16 09:51:20;;;;;;;7.53;6.90;;;33.70;50.80;;;;;;4996130;28;20785;-51
2021/06/16 09:54:15;;;;;;;8.73;7.93;;;33.80;49.80;;;;;;4997113;28;20460;-55
2021/06/16 09:56:44;;;;;;;8.50;7.90;;;33.60;50.80;;;;;;4990484;28;20959;-55
2021/06/16 09:59:14;;;;;;;9.83;6.70;;;33.80;49.90;;;;;;4995724;28;20768;-56
2021/06/16 10:01:53;;;;;;;7.77;7.10;;;33.30;49.60;;;;;;4994969;28;20885;-56
2021/06/16 10:04:44;;;;;;;14.10;8.53;;;33.40;50.10;;;;;;4984069;28;20484;-57
2021/06/16 10:07:17;;;;;;;8.30;7.50;;;33.50;49.30;;;;;;4993385;28;20467;-56
2021/06/16 10:09:50;;;;;;;8.20;7.50;;;33.90;49.50;;;;;;4996333;28;20798;-55
2021/06/16 10:12:20;;;;;;;8.70;7.97;;;33.70;46.20;;;;;;4995696;28;20468;-55
2021/06/16 10:14:49;;;;;;;7.17;6.67;;;33.90;47.00;;;;;;4994754;28;21163;-56
2021/06/16 10:17:16;;;;;;;8.30;7.60;;;34.60;45.50;;;;;;4997348;28;20503;-56
2021/06/16 10:19:44;;;;;;;7.93;7.13;;;34.40;45.00;;;;;;4996435;28;20468;-56
2021/06/16 10:22:12;;;;;;;8.07;7.27;;;34.30;46.50;;;;;;4997645;28;20452;-55
2021/06/16 10:24:39;;;;;;;8.33;7.73;;;34.70;45.10;;;;;;4995992;28;20963;-55
2021/06/16 10:27:09;;;;;;;7.00;6.53;;;34.60;43.70;;;;;;4996853;28;20514;-56
2021/06/16 10:29:43;;;;;;;8.13;7.43;;;35.10;45.40;;;;;;5000489;28;20468;-55
2021/06/16 10:32:15;;;;;;;7.93;7.20;;;35.00;45.70;;;;;;4997869;28;20470;-49
2021/06/16 10:34:59;;;;;;;7.67;7.10;;;35.30;44.90;;;;;;4994088;28;20480;-55
2021/06/16 10:37:28;;;;;;;7.80;7.17;;;35.10;42.90;;;;;;4980575;28;20857;-57
2021/06/16 10:40:38;;;;;;;7.97;7.27;;;34.60;42.80;;;;;;4996780;28;20869;-55
2021/06/16 10:43:16;;;;;;;10.50;6.97;;;34.80;43.30;;;;;;4999385;28;20464;-55
2021/06/16 11:22:37;;;;;;;7.47;6.87;;;35.80;41.90;;;;;;2400965;23;20973;-52
2021/06/16 11:25:10;;;;;;;7.67;7.17;;;35.20;41.50;;;;;;4980744;28;20472;-56
2021/06/16 11:28:07;;;;;;;6.40;6.00;;;34.60;42.50;;;;;;4973882;28;20551;-56
2021/06/16 11:30:40;;;;;;;6.80;5.80;;;34.90;43.00;;;;;;4973051;28;20556;-56
2021/06/16 11:33:28;;;;;;;7.30;6.67;;;34.90;41.20;;;;;;4979802;28;20473;-55
2021/06/16 11:35:58;;;;;;;6.00;5.57;;;34.90;42.00;;;;;;4980598;28;20461;-55
2021/06/16 11:38:32;;;;;;;6.40;5.90;;;34.90;41.60;;;;;;4975023;28;20496;-55
2021/06/16 11:41:03;;;;;;;6.30;5.80;;;34.90;41.10;;;;;;4960254;29;20474;-56
2021/06/16 11:43:37;;;;;;;6.90;6.40;;;35.40;41.20;;;;;;4960981;29;20448;-55
2021/06/16 11:46:13;;;;;;;6.83;6.30;;;35.30;40.10;;;;;;4960927;29;20470;-56
2021/06/16 11:48:42;;;;;;;6.10;5.70;;;35.20;41.20;;;;;;4960334;29;20608;-56
2021/06/16 11:51:10;;;;;;;6.50;6.00;;;35.40;41.40;;;;;;4960899;29;20473;-55
2021/06/16 11:53:43;;;;;;;6.00;5.50;;;35.30;39.40;;;;;;4960839;29;20918;-57
2021/06/16 11:56:10;;;;;;;6.37;5.93;;;35.70;40.50;;;;;;4960238;29;20783;-55
2021/06/16 11:58:39;;;;;;;6.00;5.50;;;36.50;40.40;;;;;;4960385;29;20508;-58
2021/06/16 12:01:14;;;;;;;6.63;6.13;;;36.30;38.30;;;;;;4959703;29;20465;-55
2021/06/16 12:03:43;;;;;;;6.80;6.30;;;35.50;38.70;;;;;;4961492;28;20480;-56
2021/06/16 12:06:15;;;;;;;7.70;6.40;;;35.40;40.60;;;;;;4978404;28;20912;-55
2021/06/16 12:08:44;;;;;;;8.00;6.00;;;35.30;40.10;;;;;;4978978;28;20500;-55
2021/06/16 12:11:25;;;;;;;6.30;5.60;;;34.60;40.20;;;;;;4978672;28;20505;-52
2021/06/16 12:14:11;;;;;;;6.93;6.33;;;34.70;41.00;;;;;;4974539;28;20506;-55
2021/06/16 12:16:40;;;;;;;7.20;6.50;;;35.00;41.10;;;;;;4979698;28;20435;-56
2021/06/16 12:19:19;;;;;;;7.40;6.80;;;35.50;41.10;;;;;;4979406;28;20527;-56
2021/06/16 12:21:56;;;;;;;6.43;5.83;;;35.50;41.00;;;;;;4967670;28;20484;-55
2021/06/16 12:24:26;;;;;;;6.50;6.00;;;35.40;40.30;;;;;;4978369;28;20559;-56
2021/06/16 12:27:13;;;;;;;6.40;5.80;;;35.60;39.50;;;;;;4978774;28;20761;-56
2021/06/16 12:29:50;;;;;;;6.43;5.93;;;35.40;39.40;;;;;;4978807;28;20470;-56
2021/06/16 12:32:28;;;;;;;6.20;5.73;;;35.20;39.60;;;;;;4978593;28;20895;-56
2021/06/16 12:35:16;;;;;;;7.20;6.60;;;35.60;39.90;;;;;;4979040;28;20473;-56
2021/06/16 12:37:48;;;;;;;7.77;5.60;;;36.10;39.20;;;;;;4978545;28;20465;-56
2021/06/16 12:40:18;;;;;;;6.63;6.13;;;36.10;39.30;;;;;;4959942;29;20946;-56
2021/06/16 12:42:47;;;;;;;5.97;5.57;;;36.00;38.40;;;;;;4959804;28;20811;-55
2021/06/16 12:45:39;;;;;;;6.87;6.37;;;36.00;38.80;;;;;;4963380;28;20831;-56
2021/06/16 12:48:23;;;;;;;6.07;5.40;;;36.50;38.90;;;;;;4978841;28;20496;-56
2021/06/16 12:50:54;;;;;;;6.13;5.60;;;36.50;38.40;;;;;;4978582;28;20461;-56
2021/06/16 12:53:21;;;;;;;5.07;4.77;;;36.30;36.70;;;;;;4979369;28;20465;-56
2021/06/16 12:55:52;;;;;;;7.47;6.90;;;36.20;38.00;;;;;;4979051;28;20841;-56
2021/06/16 12:58:23;;;;;;;7.40;6.70;;;36.40;37.10;;;;;;4978962;28;20555;-57
2021/06/16 13:00:51;;;;;;;6.77;6.17;;;37.00;37.30;;;;;;4978719;28;20905;-57
2021/06/16 13:03:24;;;;;;;6.50;5.90;;;37.20;37.80;;;;;;4971934;28;20469;-56
2021/06/16 13:05:53;;;;;;;7.60;7.10;;;37.10;37.40;;;;;;4975455;28;20541;-57
2021/06/16 13:08:41;;;;;;;5.47;5.07;;;36.80;37.20;;;;;;4978194;28;20492;-56
2021/06/16 13:11:21;;;;;;;7.70;6.67;;;36.50;38.40;;;;;;4978706;28;20450;-57
2021/06/16 13:14:10;;;;;;;6.70;6.30;;;36.50;37.70;;;;;;4979073;28;20452;-57
2021/06/16 13:16:37;;;;;;;5.60;5.20;;;36.50;38.50;;;;;;4978012;28;20476;-55
2021/06/16 13:19:10;;;;;;;6.37;5.70;;;36.40;37.90;;;;;;4978149;28;20461;-56
2021/06/16 13:21:38;;;;;;;6.60;6.10;;;36.60;38.20;;;;;;4971114;28;20465;-56
2021/06/16 14:03:33;;;;;;;6.47;5.73;;;35.30;39.40;;;;;;4476002;23;20480;-49
2021/06/16 14:06:00;;;;;;;6.27;5.87;;;35.10;38.60;;;;;;4999703;28;20450;-52
2021/06/16 14:08:28;;;;;;;6.13;5.73;;;34.80;39.20;;;;;;5001809;28;20781;-53
2021/06/16 14:10:59;;;;;;;6.40;5.87;;;34.70;38.50;;;;;;5005096;28;20460;-46
2021/06/16 14:13:27;;;;;;;6.03;5.63;;;34.70;39.60;;;;;;4990501;28;20476;-50
2021/06/16 14:15:54;;;;;;;6.70;6.10;;;34.30;39.70;;;;;;5000481;28;20554;-50
2021/06/16 14:18:24;;;;;;;6.40;5.90;;;34.40;39.10;;;;;;5000401;28;20439;-49
2021/06/16 14:20:53;;;;;;;6.53;6.03;;;34.30;38.50;;;;;;5001493;28;20888;-51
2021/06/16 14:23:20;;;;;;;7.00;6.40;;;34.20;40.40;;;;;;4999964;28;20483;-54
2021/06/16 14:25:47;;;;;;;6.80;6.20;;;34.50;39.90;;;;;;5001178;28;20467;-52
2021/06/16 14:28:14;;;;;;;7.33;6.10;;;34.70;39.30;;;;;;4998356;28;20782;-55
2021/06/16 14:30:43;;;;;;;7.27;6.57;;;34.50;38.50;;;;;;4998018;28;20468;-55
2021/06/16 14:33:10;;;;;;;8.83;6.47;;;34.70;39.60;;;;;;4997109;28;20567;-48
2021/06/16 14:35:37;;;;;;;6.10;5.70;;;34.50;39.10;;;;;;5000685;28;20479;-46
2021/06/16 14:38:06;;;;;;;6.50;5.90;;;33.90;39.60;;;;;;5000591;28;20902;-54
2021/06/16 14:40:35;;;;;;;6.40;5.80;;;34.20;40.80;;;;;;5001040;28;20461;-51
2021/06/16 14:43:04;;;;;;;6.43;5.83;;;34.20;39.00;;;;;;5000993;28;20464;-55
2021/06/16 14:45:33;;;;;;;6.60;5.97;;;34.50;39.40;;;;;;5000343;28;20474;-53
2021/06/16 14:48:03;;;;;;;6.27;5.77;;;35.10;39.00;;;;;;4999342;28;20491;-51
2021/06/16 14:50:30;;;;;;;6.23;5.83;;;35.50;37.30;;;;;;4981241;28;20472;-56
2021/06/16 14:52:58;;;;;;;7.40;6.90;;;35.50;36.90;;;;;;4996352;28;20566;-58
2021/06/16 14:55:27;;;;;;;7.80;7.10;;;35.10;38.40;;;;;;4995653;28;20464;-54
2021/06/16 14:57:54;;;;;;;6.20;5.80;;;34.20;39.00;;;;;;4991451;28;20439;-51
2021/06/16 15:00:23;;;;;;;6.00;5.60;;;33.80;39.40;;;;;;4998764;28;20460;-50
2021/06/16 15:02:51;;;;;;;6.57;6.07;;;33.60;40.60;;;;;;4990000;28;20552;-53
2021/06/16 15:05:21;;;;;;;6.93;6.33;;;33.90;40.50;;;;;;4993932;28;20564;-55
2021/06/16 15:07:49;;;;;;;6.97;6.40;;;34.00;39.60;;;;;;4999524;28;20496;-54
2021/06/16 15:10:18;;;;;;;7.57;7.07;;;34.00;40.00;;;;;;4999974;28;20471;-53
2021/06/16 15:12:49;;;;;;;7.80;7.13;;;33.90;40.40;;;;;;4996188;28;20917;-57
2021/06/16 15:15:19;;;;;;;6.43;5.97;;;33.90;40.70;;;;;;4997974;28;20460;-57
2021/06/16 15:17:57;;;;;;;8.03;6.30;;;34.20;39.60;;;;;;4999248;28;20457;-55
2021/06/16 15:20:24;;;;;;;9.60;7.43;;;34.40;40.00;;;;;;4998898;28;20800;-54
2021/06/16 15:22:52;;;;;;;6.80;6.30;;;34.10;39.50;;;;;;4997396;28;20882;-58
2021/06/16 15:25:22;;;;;;;6.80;6.27;;;34.20;40.20;;;;;;4999600;28;20841;-58
2021/06/16 15:27:52;;;;;;;7.07;6.60;;;34.20;40.30;;;;;;4999673;28;20495;-57
2021/06/16 15:30:21;;;;;;;6.17;5.80;;;34.10;39.80;;;;;;4999622;28;20475;-56
2021/06/16 15:32:52;;;;;;;7.17;6.67;;;34.00;39.80;;;;;;5000227;28;20484;-55
2021/06/16 15:35:23;;;;;;;7.23;6.63;;;33.70;40.10;;;;;;5000107;28;20465;-52
2021/06/16 15:37:50;;;;;;;7.60;6.90;;;33.20;41.60;;;;;;4999758;28;20519;-53
2021/06/16 15:40:18;;;;;;;7.17;6.53;;;32.60;42.30;;;;;;4999095;28;20465;-53
2021/06/16 15:42:45;;;;;;;7.10;6.50;;;32.60;42.90;;;;;;4999025;28;20476;-57
2021/06/16 15:45:16;;;;;;;6.30;5.90;;;32.60;43.60;;;;;;4999277;28;20461;-56
2021/06/16 15:47:43;;;;;;;7.20;6.70;;;33.00;43.00;;;;;;4998704;28;20473;-55
2021/06/16 15:50:12;;;;;;;8.10;7.50;;;33.00;42.70;;;;;;4998219;28;20465;-57
2021/06/16 15:52:39;;;;;;;8.83;6.60;;;33.00;42.30;;;;;;4991810;28;20475;-57
2021/06/16 15:55:09;;;;;;;6.50;6.10;;;33.10;42.70;;;;;;4998809;28;20464;-53
2021/06/16 15:57:37;;;;;;;7.20;6.63;;;33.20;42.30;;;;;;4999216;28;20475;-54
2021/06/16 16:00:05;;;;;;;7.80;7.20;;;33.30;42.40;;;;;;4998500;28;20465;-54
2021/06/16 16:02:34;;;;;;;7.13;6.53;;;33.30;43.10;;;;;;4995205;28;20503;-54
2021/06/16 16:05:07;;;;;;;7.00;6.50;;;33.30;42.10;;;;;;4981553;28;20569;-53
2021/06/16 16:07:35;;;;;;;7.13;6.63;;;33.10;41.90;;;;;;4996356;28;20531;-57
2021/06/16 16:10:02;;;;;;;7.20;6.70;;;33.10;42.30;;;;;;4998138;28;20465;-57
2021/06/16 16:12:30;;;;;;;6.70;6.30;;;32.80;42.80;;;;;;4996058;28;20475;-49
2021/06/16 16:14:57;;;;;;;7.60;6.53;;;33.00;42.70;;;;;;4994819;28;20523;-49
2021/06/16 16:17:24;;;;;;;6.67;6.17;;;32.90;43.10;;;;;;4998744;28;20476;-55
2021/06/16 16:19:56;;;;;;;7.10;6.60;;;33.10;43.00;;;;;;4998904;28;20882;-56
2021/06/16 16:22:24;;;;;;;6.87;6.37;;;33.30;42.70;;;;;;4995426;28;20524;-56
2021/06/16 16:24:53;;;;;;;7.20;6.60;;;33.40;42.40;;;;;;4998481;28;20469;-53
2021/06/16 16:27:21;;;;;;;7.37;6.87;;;33.30;41.90;;;;;;4998151;28;20471;-55
2021/06/16 16:29:48;;;;;;;6.30;5.90;;;33.30;42.20;;;;;;4998545;28;20797;-54
2021/06/16 16:32:17;;;;;;;8.03;7.30;;;33.20;42.60;;;;;;4998421;28;20742;-57
2021/06/16 16:34:45;;;;;;;7.37;6.77;;;33.20;42.70;;;;;;4999238;28;20468;-56
2021/06/16 16:37:13;;;;;;;7.40;6.90;;;33.10;42.30;;;;;;4998490;28;20465;-58
2021/06/16 16:39:42;;;;;;;7.37;6.77;;;33.10;42.20;;;;;;4997707;28;20465;-51
2021/06/16 16:42:13;;;;;;;7.13;6.63;;;33.00;41.70;;;;;;4998608;28;20461;-53
2021/06/16 16:44:42;;;;;;;7.70;7.10;;;32.90;42.60;;;;;;4998705;28;20756;-53
2021/06/16 16:47:09;;;;;;;6.97;6.27;;;33.00;42.40;;;;;;4997994;28;20556;-56
2021/06/16 16:49:36;;;;;;;7.30;6.77;;;33.00;42.60;;;;;;4998254;28;20497;-50
2021/06/16 16:52:04;;;;;;;9.27;6.70;;;33.10;42.60;;;;;;4998102;28;20988;-53
2021/06/16 16:54:34;;;;;;;6.73;6.20;;;32.90;42.00;;;;;;4998220;28;20487;-48
2021/06/16 16:57:04;;;;;;;8.07;7.50;;;32.60;42.50;;;;;;4998106;28;20476;-52
2021/06/16 16:59:34;;;;;;;7.53;7.13;;;32.40;42.60;;;;;;4997750;28;20464;-52
2021/06/16 17:02:01;;;;;;;7.37;6.77;;;32.30;42.30;;;;;;4995764;28;20476;-47
2021/06/16 17:04:28;;;;;;;7.20;6.80;;;32.10;43.00;;;;;;4983951;28;20480;-55
2021/06/16 17:06:58;;;;;;;6.13;5.77;;;32.00;43.10;;;;;;4999888;28;20461;-50
2021/06/16 17:09:25;;;;;;;7.40;6.90;;;32.00;43.60;;;;;;5002945;28;20501;-50
2021/06/16 17:11:54;;;;;;;7.60;7.07;;;32.00;44.10;;;;;;4997523;28;20470;-56
2021/06/16 17:14:21;;;;;;;6.67;6.10;;;32.00;43.90;;;;;;4992135;28;20443;-57
2021/06/16 17:16:49;;;;;;;6.07;5.57;;;31.80;43.00;;;;;;4992013;28;20476;-56
2021/06/16 17:19:16;;;;;;;8.50;7.80;;;31.70;43.00;;;;;;4997612;28;20496;-56
2021/06/16 17:21:48;;;;;;;8.60;7.00;;;31.70;43.50;;;;;;4997631;28;20468;-56
2021/06/16 17:24:15;;;;;;;7.90;7.40;;;31.70;43.80;;;;;;4997913;28;20878;-56
2021/06/16 17:26:42;;;;;;;8.47;7.87;;;31.70;44.00;;;;;;4995125;28;20766;-57
2021/06/16 17:29:10;;;;;;;7.50;7.00;;;31.70;44.40;;;;;;5000046;28;20504;-55